sensor_id;sensor_type;location;lat;lon;timestamp;P1;durP1;ratioP1;P2;durP2;ratioP2
51467;SDS011;37545;45.302;-122.946;2022-07-11T00:01:19;0.77;;;0.70;;
51467;SDS011;37545;45.302;-122.946;2022-07-11T00:03:47;2.10;;;0.90;;
51467;SDS011;37545;45.302;-122.946;2022-07-11T00:06:16;1.00;;;0.80;;
51467;SDS011;37545;45.302;-122.946;2022-07-11T00:08:44;2.20;;;1.20;;
51467;SDS011;37545;45.302;-122.946;2022-07-11T00:11:12;1.00;;;0.90;;
51467;SDS011;37545;45.302;-122.946;2022-07-11T00:13:41;1.00;;;0.90;;
51467;SDS011;37545;45.302;-122.946;2022-07-11T00:16:10;0.88;;;0.80;;
51467;SDS011;37545;45.302;-122.946;2022-07-11T00:18:40;1.00;;;0.90;;
51467;SDS011;37545;45.302;-122.946;2022-07-11T00:21:08;1.10;;;0.90;;
51467;SDS011;37545;45.302;-122.946;2022-07-11T00:23:37;1.35;;;1.17;;
51467;SDS011;37545;45.302;-122.946;2022-07-11T00:26:06;3.13;;;0.85;;
51467;SDS011;37545;45.302;-122.946;2022-07-11T00:28:34;3.75;;;1.10;;
51467;SDS011;37545;45.302;-122.946;2022-07-11T00:31:03;1.90;;;0.80;;
51467;SDS011;37545;45.302;-122.946;2022-07-11T00:33:33;1.10;;;1.00;;
51467;SDS011;37545;45.302;-122.946;2022-07-11T00:36:05;2.90;;;0.80;;
51467;SDS011;37545;45.302;-122.946;2022-07-11T00:38:34;1.03;;;0.90;;
51467;SDS011;37545;45.302;-122.946;2022-07-11T00:41:02;1.13;;;1.00;;
51467;SDS011;37545;45.302;-122.946;2022-07-11T00:43:31;1.15;;;0.93;;
51467;SDS011;37545;45.302;-122.946;2022-07-11T00:46:01;1.13;;;0.90;;
51467;SDS011;37545;45.302;-122.946;2022-07-11T00:48:30;1.13;;;0.80;;
51467;SDS011;37545;45.302;-122.946;2022-07-11T00:50:59;1.13;;;0.80;;
51467;SDS011;37545;45.302;-122.946;2022-07-11T00:53:31;1.83;;;1.00;;
51467;SDS011;37545;45.302;-122.946;2022-07-11T00:56:01;1.02;;;0.75;;
51467;SDS011;37545;45.302;-122.946;2022-07-11T00:58:30;1.05;;;0.70;;
51467;SDS011;37545;45.302;-122.946;2022-07-11T01:00:59;1.00;;;0.80;;
51467;SDS011;37545;45.302;-122.946;2022-07-11T01:03:29;1.25;;;1.15;;
51467;SDS011;37545;45.302;-122.946;2022-07-11T01:05:57;2.17;;;1.10;;
51467;SDS011;37545;45.302;-122.946;2022-07-11T01:08:26;1.40;;;1.02;;
51467;SDS011;37545;45.302;-122.946;2022-07-11T01:11:00;0.90;;;0.68;;
51467;SDS011;37545;45.302;-122.946;2022-07-11T01:13:29;1.20;;;0.80;;
51467;SDS011;37545;45.302;-122.946;2022-07-11T01:16:08;0.80;;;0.80;;
51467;SDS011;37545;45.302;-122.946;2022-07-11T01:18:38;2.15;;;0.70;;
51467;SDS011;37545;45.302;-122.946;2022-07-11T01:21:10;1.30;;;0.90;;
51467;SDS011;37545;45.302;-122.946;2022-07-11T01:23:51;0.90;;;0.75;;
51467;SDS011;37545;45.302;-122.946;2022-07-11T01:28:49;1.35;;;0.60;;
51467;SDS011;37545;45.302;-122.946;2022-07-11T01:31:18;2.17;;;1.17;;
51467;SDS011;37545;45.302;-122.946;2022-07-11T01:33:47;1.13;;;0.80;;
51467;SDS011;37545;45.302;-122.946;2022-07-11T01:36:16;1.10;;;0.90;;
51467;SDS011;37545;45.302;-122.946;2022-07-11T01:38:45;0.80;;;0.70;;
51467;SDS011;37545;45.302;-122.946;2022-07-11T01:41:15;0.70;;;0.70;;
51467;SDS011;37545;45.302;-122.946;2022-07-11T01:43:44;0.80;;;0.70;;
51467;SDS011;37545;45.302;-122.946;2022-07-11T01:46:12;1.05;;;0.63;;
51467;SDS011;37545;45.302;-122.946;2022-07-11T01:48:41;0.77;;;0.70;;
51467;SDS011;37545;45.302;-122.946;2022-07-11T01:51:09;2.05;;;0.73;;
51467;SDS011;37545;45.302;-122.946;2022-07-11T01:53:38;2.40;;;0.80;;
51467;SDS011;37545;45.302;-122.946;2022-07-11T01:56:06;0.63;;;0.60;;
51467;SDS011;37545;45.302;-122.946;2022-07-11T01:58:36;0.85;;;0.68;;
51467;SDS011;37545;45.302;-122.946;2022-07-11T02:01:05;1.52;;;0.80;;
51467;SDS011;37545;45.302;-122.946;2022-07-11T02:03:33;0.75;;;0.73;;
51467;SDS011;37545;45.302;-122.946;2022-07-11T02:06:04;1.50;;;0.65;;
51467;SDS011;37545;45.302;-122.946;2022-07-11T02:08:33;0.70;;;0.60;;
51467;SDS011;37545;45.302;-122.946;2022-07-11T02:11:02;1.63;;;0.70;;
51467;SDS011;37545;45.302;-122.946;2022-07-11T02:13:31;0.95;;;0.70;;
51467;SDS011;37545;45.302;-122.946;2022-07-11T02:16:01;1.02;;;0.70;;
51467;SDS011;37545;45.302;-122.946;2022-07-11T02:18:29;1.80;;;0.80;;
51467;SDS011;37545;45.302;-122.946;2022-07-11T02:20:58;1.85;;;0.70;;
51467;SDS011;37545;45.302;-122.946;2022-07-11T02:23:28;2.05;;;0.60;;
51467;SDS011;37545;45.302;-122.946;2022-07-11T02:25:56;0.98;;;0.70;;
51467;SDS011;37545;45.302;-122.946;2022-07-11T02:28:25;0.73;;;0.60;;
51467;SDS011;37545;45.302;-122.946;2022-07-11T02:30:53;1.15;;;0.60;;
51467;SDS011;37545;45.302;-122.946;2022-07-11T02:33:23;1.13;;;0.60;;
51467;SDS011;37545;45.302;-122.946;2022-07-11T02:35:52;1.23;;;0.68;;
51467;SDS011;37545;45.302;-122.946;2022-07-11T02:38:27;0.60;;;0.50;;
51467;SDS011;37545;45.302;-122.946;2022-07-11T02:40:55;0.98;;;0.60;;
51467;SDS011;37545;45.302;-122.946;2022-07-11T02:43:24;0.70;;;0.60;;
51467;SDS011;37545;45.302;-122.946;2022-07-11T02:45:53;1.00;;;0.80;;
51467;SDS011;37545;45.302;-122.946;2022-07-11T02:48:24;0.70;;;0.55;;
51467;SDS011;37545;45.302;-122.946;2022-07-11T02:50:52;0.98;;;0.80;;
51467;SDS011;37545;45.302;-122.946;2022-07-11T02:53:21;1.08;;;0.80;;
51467;SDS011;37545;45.302;-122.946;2022-07-11T02:55:49;0.73;;;0.65;;
51467;SDS011;37545;45.302;-122.946;2022-07-11T02:58:18;1.02;;;0.57;;
51467;SDS011;37545;45.302;-122.946;2022-07-11T03:00:46;1.77;;;0.70;;
51467;SDS011;37545;45.302;-122.946;2022-07-11T03:03:15;0.70;;;0.70;;
51467;SDS011;37545;45.302;-122.946;2022-07-11T03:05:45;6.85;;;0.90;;
51467;SDS011;37545;45.302;-122.946;2022-07-11T03:08:14;0.93;;;0.80;;
51467;SDS011;37545;45.302;-122.946;2022-07-11T03:10:42;1.38;;;0.93;;
51467;SDS011;37545;45.302;-122.946;2022-07-11T03:13:11;0.90;;;0.80;;
51467;SDS011;37545;45.302;-122.946;2022-07-11T03:15:39;1.00;;;0.65;;
51467;SDS011;37545;45.302;-122.946;2022-07-11T03:18:08;0.95;;;0.75;;
51467;SDS011;37545;45.302;-122.946;2022-07-11T03:20:36;2.00;;;0.98;;
51467;SDS011;37545;45.302;-122.946;2022-07-11T03:23:06;1.15;;;0.80;;
51467;SDS011;37545;45.302;-122.946;2022-07-11T03:25:35;0.77;;;0.77;;
51467;SDS011;37545;45.302;-122.946;2022-07-11T03:28:03;1.23;;;1.13;;
51467;SDS011;37545;45.302;-122.946;2022-07-11T03:30:32;1.48;;;0.88;;
51467;SDS011;37545;45.302;-122.946;2022-07-11T03:33:00;0.88;;;0.80;;
51467;SDS011;37545;45.302;-122.946;2022-07-11T03:35:29;0.80;;;0.73;;
51467;SDS011;37545;45.302;-122.946;2022-07-11T03:38:11;1.63;;;1.17;;
51467;SDS011;37545;45.302;-122.946;2022-07-11T03:40:41;1.02;;;0.90;;
51467;SDS011;37545;45.302;-122.946;2022-07-11T03:43:10;1.10;;;0.90;;
51467;SDS011;37545;45.302;-122.946;2022-07-11T03:45:38;0.93;;;0.93;;
51467;SDS011;37545;45.302;-122.946;2022-07-11T03:48:07;1.67;;;1.00;;
51467;SDS011;37545;45.302;-122.946;2022-07-11T03:50:36;1.08;;;0.90;;
51467;SDS011;37545;45.302;-122.946;2022-07-11T03:53:04;1.25;;;0.75;;
51467;SDS011;37545;45.302;-122.946;2022-07-11T03:55:34;0.98;;;0.80;;
51467;SDS011;37545;45.302;-122.946;2022-07-11T03:58:03;1.38;;;1.10;;
51467;SDS011;37545;45.302;-122.946;2022-07-11T04:00:32;1.08;;;0.80;;
51467;SDS011;37545;45.302;-122.946;2022-07-11T04:03:00;2.53;;;0.95;;
51467;SDS011;37545;45.302;-122.946;2022-07-11T04:05:29;1.00;;;0.90;;
51467;SDS011;37545;45.302;-122.946;2022-07-11T04:07:57;1.23;;;0.82;;
51467;SDS011;37545;45.302;-122.946;2022-07-11T04:10:26;1.40;;;1.00;;
51467;SDS011;37545;45.302;-122.946;2022-07-11T04:12:56;1.10;;;0.80;;
51467;SDS011;37545;45.302;-122.946;2022-07-11T04:15:24;0.85;;;0.80;;
51467;SDS011;37545;45.302;-122.946;2022-07-11T04:17:53;1.17;;;0.80;;
51467;SDS011;37545;45.302;-122.946;2022-07-11T04:20:21;1.42;;;0.90;;
51467;SDS011;37545;45.302;-122.946;2022-07-11T04:22:50;1.13;;;0.90;;
51467;SDS011;37545;45.302;-122.946;2022-07-11T04:25:18;1.33;;;0.80;;
51467;SDS011;37545;45.302;-122.946;2022-07-11T04:27:47;2.13;;;0.93;;
51467;SDS011;37545;45.302;-122.946;2022-07-11T04:30:17;1.33;;;1.00;;
51467;SDS011;37545;45.302;-122.946;2022-07-11T04:32:46;0.80;;;0.80;;
51467;SDS011;37545;45.302;-122.946;2022-07-11T04:35:14;1.08;;;0.88;;
51467;SDS011;37545;45.302;-122.946;2022-07-11T04:37:44;1.70;;;0.70;;
51467;SDS011;37545;45.302;-122.946;2022-07-11T04:40:12;2.58;;;0.63;;
51467;SDS011;37545;45.302;-122.946;2022-07-11T04:42:43;0.80;;;0.80;;
51467;SDS011;37545;45.302;-122.946;2022-07-11T04:45:11;1.45;;;0.95;;
51467;SDS011;37545;45.302;-122.946;2022-07-11T04:47:41;1.30;;;0.90;;
51467;SDS011;37545;45.302;-122.946;2022-07-11T04:50:10;1.00;;;0.80;;
51467;SDS011;37545;45.302;-122.946;2022-07-11T04:52:38;0.90;;;0.80;;
51467;SDS011;37545;45.302;-122.946;2022-07-11T04:55:09;1.20;;;0.75;;
51467;SDS011;37545;45.302;-122.946;2022-07-11T04:57:37;1.05;;;0.80;;
51467;SDS011;37545;45.302;-122.946;2022-07-11T05:00:06;0.90;;;0.80;;
51467;SDS011;37545;45.302;-122.946;2022-07-11T05:02:35;2.42;;;1.15;;
51467;SDS011;37545;45.302;-122.946;2022-07-11T05:05:06;1.00;;;0.80;;
51467;SDS011;37545;45.302;-122.946;2022-07-11T05:07:35;0.95;;;0.75;;
51467;SDS011;37545;45.302;-122.946;2022-07-11T05:10:04;1.05;;;0.85;;
51467;SDS011;37545;45.302;-122.946;2022-07-11T05:12:33;1.75;;;0.90;;
51467;SDS011;37545;45.302;-122.946;2022-07-11T05:15:02;1.33;;;1.00;;
51467;SDS011;37545;45.302;-122.946;2022-07-11T05:17:31;2.20;;;1.00;;
51467;SDS011;37545;45.302;-122.946;2022-07-11T05:19:59;1.85;;;0.90;;
51467;SDS011;37545;45.302;-122.946;2022-07-11T05:22:29;1.10;;;0.93;;
51467;SDS011;37545;45.302;-122.946;2022-07-11T05:24:58;1.33;;;0.93;;
51467;SDS011;37545;45.302;-122.946;2022-07-11T05:27:26;1.23;;;1.00;;
51467;SDS011;37545;45.302;-122.946;2022-07-11T05:29:55;1.13;;;0.95;;
51467;SDS011;37545;45.302;-122.946;2022-07-11T05:32:23;2.25;;;0.90;;
51467;SDS011;37545;45.302;-122.946;2022-07-11T05:34:52;0.70;;;0.70;;
51467;SDS011;37545;45.302;-122.946;2022-07-11T05:37:22;1.13;;;1.02;;
51467;SDS011;37545;45.302;-122.946;2022-07-11T05:39:52;2.00;;;0.93;;
51467;SDS011;37545;45.302;-122.946;2022-07-11T05:42:21;1.60;;;0.90;;
51467;SDS011;37545;45.302;-122.946;2022-07-11T05:44:50;2.30;;;1.00;;
51467;SDS011;37545;45.302;-122.946;2022-07-11T05:47:18;1.08;;;0.88;;
51467;SDS011;37545;45.302;-122.946;2022-07-11T05:49:47;2.05;;;1.63;;
51467;SDS011;37545;45.302;-122.946;2022-07-11T05:52:22;1.20;;;0.93;;
51467;SDS011;37545;45.302;-122.946;2022-07-11T05:54:52;1.05;;;0.90;;
51467;SDS011;37545;45.302;-122.946;2022-07-11T05:57:21;1.08;;;0.98;;
51467;SDS011;37545;45.302;-122.946;2022-07-11T05:59:49;0.80;;;0.80;;
51467;SDS011;37545;45.302;-122.946;2022-07-11T06:02:18;1.00;;;0.90;;
51467;SDS011;37545;45.302;-122.946;2022-07-11T06:04:46;1.10;;;1.00;;
51467;SDS011;37545;45.302;-122.946;2022-07-11T06:07:15;2.05;;;0.90;;
51467;SDS011;37545;45.302;-122.946;2022-07-11T06:10:10;1.20;;;1.10;;
51467;SDS011;37545;45.302;-122.946;2022-07-11T06:12:37;3.35;;;1.02;;
51467;SDS011;37545;45.302;-122.946;2022-07-11T06:15:07;2.60;;;0.98;;
51467;SDS011;37545;45.302;-122.946;2022-07-11T06:17:36;1.55;;;1.00;;
51467;SDS011;37545;45.302;-122.946;2022-07-11T06:20:05;1.50;;;0.90;;
51467;SDS011;37545;45.302;-122.946;2022-07-11T06:22:34;1.70;;;1.00;;
51467;SDS011;37545;45.302;-122.946;2022-07-11T06:25:03;1.00;;;0.90;;
51467;SDS011;37545;45.302;-122.946;2022-07-11T06:27:33;1.17;;;0.90;;
51467;SDS011;37545;45.302;-122.946;2022-07-11T06:30:02;1.30;;;1.00;;
51467;SDS011;37545;45.302;-122.946;2022-07-11T06:32:31;1.00;;;0.80;;
51467;SDS011;37545;45.302;-122.946;2022-07-11T06:34:59;1.75;;;1.02;;
51467;SDS011;37545;45.302;-122.946;2022-07-11T06:37:28;2.47;;;1.30;;
51467;SDS011;37545;45.302;-122.946;2022-07-11T06:39:56;1.52;;;1.20;;
51467;SDS011;37545;45.302;-122.946;2022-07-11T06:42:25;1.75;;;1.10;;
51467;SDS011;37545;45.302;-122.946;2022-07-11T06:44:55;1.83;;;1.02;;
51467;SDS011;37545;45.302;-122.946;2022-07-11T06:47:23;3.85;;;1.27;;
51467;SDS011;37545;45.302;-122.946;2022-07-11T06:49:52;2.33;;;1.00;;
51467;SDS011;37545;45.302;-122.946;2022-07-11T06:52:20;2.17;;;1.15;;
51467;SDS011;37545;45.302;-122.946;2022-07-11T06:54:49;1.48;;;1.15;;
51467;SDS011;37545;45.302;-122.946;2022-07-11T06:57:17;2.20;;;1.00;;
51467;SDS011;37545;45.302;-122.946;2022-07-11T06:59:46;2.10;;;1.23;;
51467;SDS011;37545;45.302;-122.946;2022-07-11T07:02:16;1.38;;;1.00;;
51467;SDS011;37545;45.302;-122.946;2022-07-11T07:04:44;1.05;;;0.95;;
51467;SDS011;37545;45.302;-122.946;2022-07-11T07:07:13;1.55;;;1.25;;
51467;SDS011;37545;45.302;-122.946;2022-07-11T07:09:42;2.42;;;1.10;;
51467;SDS011;37545;45.302;-122.946;2022-07-11T07:12:10;4.47;;;1.48;;
51467;SDS011;37545;45.302;-122.946;2022-07-11T07:14:39;3.13;;;1.42;;
51467;SDS011;37545;45.302;-122.946;2022-07-11T07:17:07;3.08;;;1.30;;
51467;SDS011;37545;45.302;-122.946;2022-07-11T07:19:37;1.83;;;1.10;;
51467;SDS011;37545;45.302;-122.946;2022-07-11T07:22:06;1.65;;;1.10;;
51467;SDS011;37545;45.302;-122.946;2022-07-11T07:24:34;1.50;;;1.15;;
51467;SDS011;37545;45.302;-122.946;2022-07-11T07:27:03;2.08;;;1.40;;
51467;SDS011;37545;45.302;-122.946;2022-07-11T07:29:32;4.18;;;1.55;;
51467;SDS011;37545;45.302;-122.946;2022-07-11T07:32:01;1.73;;;1.10;;
51467;SDS011;37545;45.302;-122.946;2022-07-11T07:34:29;2.97;;;1.10;;
51467;SDS011;37545;45.302;-122.946;2022-07-11T07:37:00;1.23;;;1.00;;
51467;SDS011;37545;45.302;-122.946;2022-07-11T07:39:28;3.58;;;1.10;;
51467;SDS011;37545;45.302;-122.946;2022-07-11T07:41:57;1.58;;;1.10;;
51467;SDS011;37545;45.302;-122.946;2022-07-11T07:44:25;2.50;;;1.20;;
51467;SDS011;37545;45.302;-122.946;2022-07-11T07:46:54;1.63;;;0.98;;
51467;SDS011;37545;45.302;-122.946;2022-07-11T07:49:22;2.95;;;1.17;;
51467;SDS011;37545;45.302;-122.946;2022-07-11T07:51:51;1.55;;;1.00;;
51467;SDS011;37545;45.302;-122.946;2022-07-11T07:54:21;1.90;;;1.23;;
51467;SDS011;37545;45.302;-122.946;2022-07-11T07:56:49;1.65;;;1.27;;
51467;SDS011;37545;45.302;-122.946;2022-07-11T07:59:18;1.88;;;1.10;;
51467;SDS011;37545;45.302;-122.946;2022-07-11T08:01:50;1.30;;;1.20;;
51467;SDS011;37545;45.302;-122.946;2022-07-11T08:04:17;1.67;;;1.10;;
51467;SDS011;37545;45.302;-122.946;2022-07-11T08:06:46;1.48;;;1.10;;
51467;SDS011;37545;45.302;-122.946;2022-07-11T08:09:14;1.52;;;1.02;;
51467;SDS011;37545;45.302;-122.946;2022-07-11T08:11:45;2.50;;;1.13;;
51467;SDS011;37545;45.302;-122.946;2022-07-11T08:14:13;1.73;;;1.10;;
51467;SDS011;37545;45.302;-122.946;2022-07-11T08:16:41;2.47;;;1.20;;
51467;SDS011;37545;45.302;-122.946;2022-07-11T08:19:10;3.05;;;1.30;;
51467;SDS011;37545;45.302;-122.946;2022-07-11T08:21:39;1.40;;;1.25;;
51467;SDS011;37545;45.302;-122.946;2022-07-11T08:24:07;2.00;;;1.35;;
51467;SDS011;37545;45.302;-122.946;2022-07-11T08:26:36;1.63;;;1.15;;
51467;SDS011;37545;45.302;-122.946;2022-07-11T08:29:07;1.40;;;1.30;;
51467;SDS011;37545;45.302;-122.946;2022-07-11T08:31:36;1.95;;;1.25;;
51467;SDS011;37545;45.302;-122.946;2022-07-11T08:34:04;2.78;;;1.27;;
51467;SDS011;37545;45.302;-122.946;2022-07-11T08:36:33;1.70;;;1.05;;
51467;SDS011;37545;45.302;-122.946;2022-07-11T08:39:02;1.67;;;1.17;;
51467;SDS011;37545;45.302;-122.946;2022-07-11T08:41:31;1.15;;;1.00;;
51467;SDS011;37545;45.302;-122.946;2022-07-11T08:43:59;1.05;;;0.95;;
51467;SDS011;37545;45.302;-122.946;2022-07-11T08:46:30;1.30;;;1.17;;
51467;SDS011;37545;45.302;-122.946;2022-07-11T08:48:59;1.40;;;1.20;;
51467;SDS011;37545;45.302;-122.946;2022-07-11T08:51:31;1.70;;;1.17;;
51467;SDS011;37545;45.302;-122.946;2022-07-11T08:54:03;1.63;;;1.20;;
51467;SDS011;37545;45.302;-122.946;2022-07-11T08:56:32;1.85;;;1.10;;
51467;SDS011;37545;45.302;-122.946;2022-07-11T08:59:02;1.23;;;1.10;;
51467;SDS011;37545;45.302;-122.946;2022-07-11T09:01:34;2.25;;;1.10;;
51467;SDS011;37545;45.302;-122.946;2022-07-11T09:04:05;2.15;;;1.10;;
51467;SDS011;37545;45.302;-122.946;2022-07-11T09:06:35;2.47;;;1.10;;
51467;SDS011;37545;45.302;-122.946;2022-07-11T09:09:03;1.67;;;1.08;;
51467;SDS011;37545;45.302;-122.946;2022-07-11T09:14:23;1.70;;;1.20;;
51467;SDS011;37545;45.302;-122.946;2022-07-11T09:16:54;1.90;;;1.10;;
51467;SDS011;37545;45.302;-122.946;2022-07-11T09:19:24;1.13;;;1.02;;
51467;SDS011;37545;45.302;-122.946;2022-07-11T09:22:00;1.90;;;1.30;;
51467;SDS011;37545;45.302;-122.946;2022-07-11T09:24:54;2.30;;;1.42;;
51467;SDS011;37545;45.302;-122.946;2022-07-11T09:27:41;1.90;;;1.30;;
51467;SDS011;37545;45.302;-122.946;2022-07-11T09:30:21;2.03;;;1.30;;
51467;SDS011;37545;45.302;-122.946;2022-07-11T09:32:53;2.28;;;1.20;;
51467;SDS011;37545;45.302;-122.946;2022-07-11T09:35:39;1.20;;;1.10;;
51467;SDS011;37545;45.302;-122.946;2022-07-11T09:38:16;2.20;;;1.35;;
51467;SDS011;37545;45.302;-122.946;2022-07-11T09:40:47;2.13;;;1.00;;
51467;SDS011;37545;45.302;-122.946;2022-07-11T09:43:23;1.48;;;1.30;;
51467;SDS011;37545;45.302;-122.946;2022-07-11T09:45:52;2.08;;;1.25;;
51467;SDS011;37545;45.302;-122.946;2022-07-11T09:48:33;1.73;;;1.25;;
51467;SDS011;37545;45.302;-122.946;2022-07-11T09:51:01;1.90;;;1.20;;
51467;SDS011;37545;45.302;-122.946;2022-07-11T09:53:30;2.83;;;1.30;;
51467;SDS011;37545;45.302;-122.946;2022-07-11T09:55:59;2.80;;;1.25;;
51467;SDS011;37545;45.302;-122.946;2022-07-11T09:58:28;1.15;;;1.00;;
51467;SDS011;37545;45.302;-122.946;2022-07-11T10:00:57;1.30;;;1.10;;
51467;SDS011;37545;45.302;-122.946;2022-07-11T10:03:26;3.15;;;1.20;;
51467;SDS011;37545;45.302;-122.946;2022-07-11T10:05:58;2.10;;;1.20;;
51467;SDS011;37545;45.302;-122.946;2022-07-11T10:08:26;1.30;;;1.20;;
51467;SDS011;37545;45.302;-122.946;2022-07-11T10:10:58;1.73;;;1.20;;
51467;SDS011;37545;45.302;-122.946;2022-07-11T10:13:28;2.33;;;1.40;;
51467;SDS011;37545;45.302;-122.946;2022-07-11T10:15:57;1.33;;;1.20;;
51467;SDS011;37545;45.302;-122.946;2022-07-11T10:18:30;1.98;;;1.38;;
51467;SDS011;37545;45.302;-122.946;2022-07-11T10:21:06;1.30;;;1.20;;
51467;SDS011;37545;45.302;-122.946;2022-07-11T10:23:40;1.98;;;1.40;;
51467;SDS011;37545;45.302;-122.946;2022-07-11T10:26:19;1.40;;;1.10;;
51467;SDS011;37545;45.302;-122.946;2022-07-11T10:28:54;1.60;;;1.50;;
51467;SDS011;37545;45.302;-122.946;2022-07-11T10:31:25;3.47;;;1.25;;
51467;SDS011;37545;45.302;-122.946;2022-07-11T10:33:59;3.30;;;1.23;;
51467;SDS011;37545;45.302;-122.946;2022-07-11T10:36:31;1.73;;;1.30;;
51467;SDS011;37545;45.302;-122.946;2022-07-11T10:39:14;2.60;;;1.25;;
51467;SDS011;37545;45.302;-122.946;2022-07-11T10:41:44;1.40;;;1.30;;
51467;SDS011;37545;45.302;-122.946;2022-07-11T10:44:13;1.73;;;1.50;;
51467;SDS011;37545;45.302;-122.946;2022-07-11T10:46:41;1.50;;;1.20;;
51467;SDS011;37545;45.302;-122.946;2022-07-11T10:49:15;3.55;;;1.50;;
51467;SDS011;37545;45.302;-122.946;2022-07-11T10:51:51;2.50;;;1.40;;
51467;SDS011;37545;45.302;-122.946;2022-07-11T10:54:30;3.03;;;1.65;;
51467;SDS011;37545;45.302;-122.946;2022-07-11T10:57:12;1.77;;;1.60;;
51467;SDS011;37545;45.302;-122.946;2022-07-11T11:02:29;2.58;;;1.35;;
51467;SDS011;37545;45.302;-122.946;2022-07-11T11:04:58;3.22;;;1.60;;
51467;SDS011;37545;45.302;-122.946;2022-07-11T11:07:30;2.97;;;1.35;;
51467;SDS011;37545;45.302;-122.946;2022-07-11T11:13:18;2.15;;;1.38;;
51467;SDS011;37545;45.302;-122.946;2022-07-11T11:15:48;2.63;;;1.30;;
51467;SDS011;37545;45.302;-122.946;2022-07-11T11:18:30;2.65;;;1.30;;
51467;SDS011;37545;45.302;-122.946;2022-07-11T11:21:21;1.92;;;1.38;;
51467;SDS011;37545;45.302;-122.946;2022-07-11T11:24:04;4.47;;;1.52;;
51467;SDS011;37545;45.302;-122.946;2022-07-11T11:26:49;1.83;;;1.30;;
51467;SDS011;37545;45.302;-122.946;2022-07-11T11:29:19;1.80;;;1.33;;
51467;SDS011;37545;45.302;-122.946;2022-07-11T11:31:50;1.70;;;1.40;;
51467;SDS011;37545;45.302;-122.946;2022-07-11T11:34:19;2.55;;;1.70;;
51467;SDS011;37545;45.302;-122.946;2022-07-11T11:36:52;2.38;;;1.77;;
51467;SDS011;37545;45.302;-122.946;2022-07-11T11:39:27;3.67;;;1.80;;
51467;SDS011;37545;45.302;-122.946;2022-07-11T11:42:02;1.98;;;1.55;;
51467;SDS011;37545;45.302;-122.946;2022-07-11T11:44:34;1.67;;;1.40;;
51467;SDS011;37545;45.302;-122.946;2022-07-11T11:47:15;2.10;;;1.58;;
51467;SDS011;37545;45.302;-122.946;2022-07-11T11:49:44;1.63;;;1.42;;
51467;SDS011;37545;45.302;-122.946;2022-07-11T11:52:13;2.35;;;1.65;;
51467;SDS011;37545;45.302;-122.946;2022-07-11T11:54:44;3.20;;;1.77;;
51467;SDS011;37545;45.302;-122.946;2022-07-11T11:57:20;2.13;;;1.67;;
51467;SDS011;37545;45.302;-122.946;2022-07-11T11:59:50;2.33;;;1.52;;
51467;SDS011;37545;45.302;-122.946;2022-07-11T12:02:23;2.25;;;1.70;;
51467;SDS011;37545;45.302;-122.946;2022-07-11T12:04:53;2.58;;;1.50;;
51467;SDS011;37545;45.302;-122.946;2022-07-11T12:07:22;3.60;;;1.70;;
51467;SDS011;37545;45.302;-122.946;2022-07-11T12:09:57;1.38;;;1.27;;
51467;SDS011;37545;45.302;-122.946;2022-07-11T12:12:29;2.80;;;1.90;;
51467;SDS011;37545;45.302;-122.946;2022-07-11T12:17:57;2.60;;;1.88;;
51467;SDS011;37545;45.302;-122.946;2022-07-11T12:20:38;2.03;;;1.65;;
51467;SDS011;37545;45.302;-122.946;2022-07-11T12:23:09;3.63;;;1.77;;
51467;SDS011;37545;45.302;-122.946;2022-07-11T12:25:40;3.65;;;1.98;;
51467;SDS011;37545;45.302;-122.946;2022-07-11T12:28:09;2.63;;;1.77;;
51467;SDS011;37545;45.302;-122.946;2022-07-11T12:30:38;2.38;;;1.63;;
51467;SDS011;37545;45.302;-122.946;2022-07-11T12:33:07;2.40;;;1.90;;
51467;SDS011;37545;45.302;-122.946;2022-07-11T12:35:51;2.80;;;1.90;;
51467;SDS011;37545;45.302;-122.946;2022-07-11T12:38:21;2.10;;;1.90;;
51467;SDS011;37545;45.302;-122.946;2022-07-11T12:41:01;3.42;;;1.83;;
51467;SDS011;37545;45.302;-122.946;2022-07-11T12:43:44;2.10;;;1.83;;
51467;SDS011;37545;45.302;-122.946;2022-07-11T12:46:32;2.55;;;1.75;;
51467;SDS011;37545;45.302;-122.946;2022-07-11T12:49:01;2.78;;;1.75;;
51467;SDS011;37545;45.302;-122.946;2022-07-11T12:51:31;1.77;;;1.48;;
51467;SDS011;37545;45.302;-122.946;2022-07-11T12:54:05;3.53;;;1.73;;
51467;SDS011;37545;45.302;-122.946;2022-07-11T12:56:36;4.22;;;1.80;;
51467;SDS011;37545;45.302;-122.946;2022-07-11T12:59:05;2.90;;;1.85;;
51467;SDS011;37545;45.302;-122.946;2022-07-11T13:01:53;1.98;;;1.60;;
51467;SDS011;37545;45.302;-122.946;2022-07-11T13:04:33;1.67;;;1.50;;
51467;SDS011;37545;45.302;-122.946;2022-07-11T13:07:19;3.60;;;1.98;;
51467;SDS011;37545;45.302;-122.946;2022-07-11T13:10:07;2.60;;;1.60;;
51467;SDS011;37545;45.302;-122.946;2022-07-11T13:12:39;2.72;;;1.63;;
51467;SDS011;37545;45.302;-122.946;2022-07-11T13:15:08;3.70;;;1.50;;
51467;SDS011;37545;45.302;-122.946;2022-07-11T13:17:38;2.30;;;1.90;;
51467;SDS011;37545;45.302;-122.946;2022-07-11T13:20:15;3.42;;;1.83;;
51467;SDS011;37545;45.302;-122.946;2022-07-11T13:22:45;3.50;;;1.70;;
51467;SDS011;37545;45.302;-122.946;2022-07-11T13:25:15;3.33;;;2.15;;
51467;SDS011;37545;45.302;-122.946;2022-07-11T13:27:47;2.33;;;1.88;;
51467;SDS011;37545;45.302;-122.946;2022-07-11T13:30:16;2.33;;;1.80;;
51467;SDS011;37545;45.302;-122.946;2022-07-11T13:32:48;2.53;;;1.67;;
51467;SDS011;37545;45.302;-122.946;2022-07-11T13:35:17;2.13;;;1.70;;
51467;SDS011;37545;45.302;-122.946;2022-07-11T13:37:46;3.50;;;1.88;;
51467;SDS011;37545;45.302;-122.946;2022-07-11T13:40:15;1.83;;;1.70;;
51467;SDS011;37545;45.302;-122.946;2022-07-11T13:42:45;2.30;;;1.73;;
51467;SDS011;37545;45.302;-122.946;2022-07-11T13:45:16;3.53;;;2.13;;
51467;SDS011;37545;45.302;-122.946;2022-07-11T13:47:45;3.10;;;1.70;;
51467;SDS011;37545;45.302;-122.946;2022-07-11T13:50:14;2.22;;;1.90;;
51467;SDS011;37545;45.302;-122.946;2022-07-11T13:52:43;3.20;;;1.98;;
51467;SDS011;37545;45.302;-122.946;2022-07-11T13:55:14;5.07;;;2.17;;
51467;SDS011;37545;45.302;-122.946;2022-07-11T13:57:43;3.30;;;2.03;;
51467;SDS011;37545;45.302;-122.946;2022-07-11T14:00:13;3.60;;;1.95;;
51467;SDS011;37545;45.302;-122.946;2022-07-11T14:02:42;2.80;;;2.08;;
51467;SDS011;37545;45.302;-122.946;2022-07-11T14:05:11;2.97;;;2.15;;
51467;SDS011;37545;45.302;-122.946;2022-07-11T14:07:40;3.08;;;1.88;;
51467;SDS011;37545;45.302;-122.946;2022-07-11T14:10:08;2.38;;;1.65;;
51467;SDS011;37545;45.302;-122.946;2022-07-11T14:12:37;3.10;;;1.85;;
51467;SDS011;37545;45.302;-122.946;2022-07-11T14:15:07;2.55;;;2.03;;
51467;SDS011;37545;45.302;-122.946;2022-07-11T14:17:38;2.38;;;1.70;;
51467;SDS011;37545;45.302;-122.946;2022-07-11T14:20:07;3.30;;;2.10;;
51467;SDS011;37545;45.302;-122.946;2022-07-11T14:22:36;2.53;;;1.90;;
51467;SDS011;37545;45.302;-122.946;2022-07-11T14:25:05;4.72;;;1.98;;
51467;SDS011;37545;45.302;-122.946;2022-07-11T14:27:35;3.75;;;1.92;;
51467;SDS011;37545;45.302;-122.946;2022-07-11T14:30:05;1.60;;;1.50;;
51467;SDS011;37545;45.302;-122.946;2022-07-11T14:32:35;2.13;;;1.70;;
51467;SDS011;37545;45.302;-122.946;2022-07-11T14:35:05;3.15;;;1.80;;
51467;SDS011;37545;45.302;-122.946;2022-07-11T14:37:34;2.00;;;1.60;;
51467;SDS011;37545;45.302;-122.946;2022-07-11T14:40:03;2.38;;;1.98;;
51467;SDS011;37545;45.302;-122.946;2022-07-11T14:42:32;1.90;;;1.65;;